Terminal Aerodrome Forecast
Issued by NWS Bismarck, ND

Home | Current Version | Previous Version | Text Only | Print | Product List | Glossary Off
Versions: 1 2 3 4 5 6 7 8 9 10 11 12 13 14 15 16 17 18

000
FTUS43 KBIS 281700
TAFISN
TAF
KISN 281725Z 2818/2918 33015G23KT 2SM BR OVC004
      TEMPO 2818/2822 1/4SM FG VV001
     FM290300 31014G19KT 6SM BR OVC006
     FM290600 32011KT 5SM BR OVC010=

USA.gov is the U.S. government's official web portal to all federal, state and local government web resources and services.